sensor_id;sensor_type;location;lat;lon;timestamp;temperature;humidity
52058;DHT22;38063;53.210;6.504;2023-06-04T00:00:40;11.10;99.90
52058;DHT22;38063;53.210;6.504;2023-06-04T00:03:06;11.20;99.90
52058;DHT22;38063;53.210;6.504;2023-06-04T00:05:32;11.00;99.90
52058;DHT22;38063;53.210;6.504;2023-06-04T00:07:57;11.00;99.90
52058;DHT22;38063;53.210;6.504;2023-06-04T00:10:23;11.00;99.90
52058;DHT22;38063;53.210;6.504;2023-06-04T00:12:49;11.00;99.90
52058;DHT22;38063;53.210;6.504;2023-06-04T00:15:14;11.00;99.90
52058;DHT22;38063;53.210;6.504;2023-06-04T00:17:42;11.00;99.90
52058;DHT22;38063;53.210;6.504;2023-06-04T00:20:08;10.90;99.90
52058;DHT22;38063;53.210;6.504;2023-06-04T00:22:34;10.90;99.90
52058;DHT22;38063;53.210;6.504;2023-06-04T00:25:00;11.10;99.90
52058;DHT22;38063;53.210;6.504;2023-06-04T00:27:25;11.10;99.90
52058;DHT22;38063;53.210;6.504;2023-06-04T00:29:51;10.90;99.90
52058;DHT22;38063;53.210;6.504;2023-06-04T00:32:16;10.80;99.90
52058;DHT22;38063;53.210;6.504;2023-06-04T00:34:42;10.80;99.90
52058;DHT22;38063;53.210;6.504;2023-06-04T00:37:08;10.80;99.90
52058;DHT22;38063;53.210;6.504;2023-06-04T00:39:33;10.70;99.90
52058;DHT22;38063;53.210;6.504;2023-06-04T00:42:00;10.60;99.90
52058;DHT22;38063;53.210;6.504;2023-06-04T00:44:26;10.80;99.90
52058;DHT22;38063;53.210;6.504;2023-06-04T00:46:52;10.70;99.90
52058;DHT22;38063;53.210;6.504;2023-06-04T00:49:19;10.70;99.90
52058;DHT22;38063;53.210;6.504;2023-06-04T00:51:45;10.60;99.90
52058;DHT22;38063;53.210;6.504;2023-06-04T00:54:12;10.60;99.90
52058;DHT22;38063;53.210;6.504;2023-06-04T00:56:38;10.50;99.90
52058;DHT22;38063;53.210;6.504;2023-06-04T00:59:07;10.50;99.90
52058;DHT22;38063;53.210;6.504;2023-06-04T01:04:09;10.50;99.90
52058;DHT22;38063;53.210;6.504;2023-06-04T01:06:45;10.40;99.90
52058;DHT22;38063;53.210;6.504;2023-06-04T01:09:13;10.50;99.90
52058;DHT22;38063;53.210;6.504;2023-06-04T01:11:40;10.40;99.90
52058;DHT22;38063;53.210;6.504;2023-06-04T01:14:08;10.40;99.90
52058;DHT22;38063;53.210;6.504;2023-06-04T01:16:39;10.40;99.90
52058;DHT22;38063;53.210;6.504;2023-06-04T01:19:17;10.40;99.90
52058;DHT22;38063;53.210;6.504;2023-06-04T01:21:49;10.40;99.90
52058;DHT22;38063;53.210;6.504;2023-06-04T01:24:17;10.40;99.90
52058;DHT22;38063;53.210;6.504;2023-06-04T01:26:46;10.40;99.90
52058;DHT22;38063;53.210;6.504;2023-06-04T01:29:11;10.30;99.90
52058;DHT22;38063;53.210;6.504;2023-06-04T01:31:38;10.30;99.90
52058;DHT22;38063;53.210;6.504;2023-06-04T01:34:03;10.30;99.90
52058;DHT22;38063;53.210;6.504;2023-06-04T01:36:32;10.30;99.90
52058;DHT22;38063;53.210;6.504;2023-06-04T01:38:58;10.30;99.90
52058;DHT22;38063;53.210;6.504;2023-06-04T01:41:26;10.30;99.90
52058;DHT22;38063;53.210;6.504;2023-06-04T01:43:51;10.30;99.90
52058;DHT22;38063;53.210;6.504;2023-06-04T01:46:17;10.20;99.90
52058;DHT22;38063;53.210;6.504;2023-06-04T01:48:42;10.20;99.90
52058;DHT22;38063;53.210;6.504;2023-06-04T01:51:08;10.20;99.90
52058;DHT22;38063;53.210;6.504;2023-06-04T01:53:34;10.20;99.90
52058;DHT22;38063;53.210;6.504;2023-06-04T01:56:00;10.10;99.90
52058;DHT22;38063;53.210;6.504;2023-06-04T01:58:29;10.20;99.90
52058;DHT22;38063;53.210;6.504;2023-06-04T02:00:54;10.10;99.90
52058;DHT22;38063;53.210;6.504;2023-06-04T02:03:21;10.10;99.90
52058;DHT22;38063;53.210;6.504;2023-06-04T02:05:48;10.10;99.90
52058;DHT22;38063;53.210;6.504;2023-06-04T02:08:17;10.10;99.90
52058;DHT22;38063;53.210;6.504;2023-06-04T02:10:47;10.10;99.90
52058;DHT22;38063;53.210;6.504;2023-06-04T02:13:13;10.00;99.90
52058;DHT22;38063;53.210;6.504;2023-06-04T02:15:39;10.00;99.90
52058;DHT22;38063;53.210;6.504;2023-06-04T02:18:18;10.00;99.90
52058;DHT22;38063;53.210;6.504;2023-06-04T02:20:48;10.00;99.90
52058;DHT22;38063;53.210;6.504;2023-06-04T02:23:15;10.00;99.90
52058;DHT22;38063;53.210;6.504;2023-06-04T02:25:41;10.00;99.90
52058;DHT22;38063;53.210;6.504;2023-06-04T02:28:10;10.00;99.90
52058;DHT22;38063;53.210;6.504;2023-06-04T02:30:36;10.00;99.90
52058;DHT22;38063;53.210;6.504;2023-06-04T02:33:01;9.90;99.90
52058;DHT22;38063;53.210;6.504;2023-06-04T02:35:30;9.90;99.90
52058;DHT22;38063;53.210;6.504;2023-06-04T02:37:57;10.00;99.90
52058;DHT22;38063;53.210;6.504;2023-06-04T02:40:24;9.80;99.90
52058;DHT22;38063;53.210;6.504;2023-06-04T02:42:51;10.20;99.90
52058;DHT22;38063;53.210;6.504;2023-06-04T02:45:17;10.00;99.90
52058;DHT22;38063;53.210;6.504;2023-06-04T02:47:43;9.80;99.90
52058;DHT22;38063;53.210;6.504;2023-06-04T02:50:09;9.70;99.90
52058;DHT22;38063;53.210;6.504;2023-06-04T02:52:34;9.70;99.90
52058;DHT22;38063;53.210;6.504;2023-06-04T02:55:04;9.60;99.90
52058;DHT22;38063;53.210;6.504;2023-06-04T02:57:30;9.60;99.90
52058;DHT22;38063;53.210;6.504;2023-06-04T02:59:56;9.60;99.90
52058;DHT22;38063;53.210;6.504;2023-06-04T03:02:22;9.60;99.90
52058;DHT22;38063;53.210;6.504;2023-06-04T03:04:47;9.60;99.90
52058;DHT22;38063;53.210;6.504;2023-06-04T03:07:16;9.60;99.90
52058;DHT22;38063;53.210;6.504;2023-06-04T03:09:46;9.50;99.90
52058;DHT22;38063;53.210;6.504;2023-06-04T03:12:12;9.50;99.90
52058;DHT22;38063;53.210;6.504;2023-06-04T03:14:38;9.50;99.90
52058;DHT22;38063;53.210;6.504;2023-06-04T03:17:04;9.50;99.90
52058;DHT22;38063;53.210;6.504;2023-06-04T03:19:35;9.50;99.90
52058;DHT22;38063;53.210;6.504;2023-06-04T03:22:01;9.50;99.90
52058;DHT22;38063;53.210;6.504;2023-06-04T03:24:34;9.50;99.90
52058;DHT22;38063;53.210;6.504;2023-06-04T03:27:00;9.50;99.90
52058;DHT22;38063;53.210;6.504;2023-06-04T03:29:26;9.50;99.90
52058;DHT22;38063;53.210;6.504;2023-06-04T03:31:52;9.50;99.90
52058;DHT22;38063;53.210;6.504;2023-06-04T03:34:17;9.50;99.90
52058;DHT22;38063;53.210;6.504;2023-06-04T03:36:43;9.50;99.90
52058;DHT22;38063;53.210;6.504;2023-06-04T03:39:09;9.50;99.90
52058;DHT22;38063;53.210;6.504;2023-06-04T03:41:35;9.50;99.90
52058;DHT22;38063;53.210;6.504;2023-06-04T03:44:01;9.50;99.90
52058;DHT22;38063;53.210;6.504;2023-06-04T03:46:26;9.50;99.90
52058;DHT22;38063;53.210;6.504;2023-06-04T03:48:54;9.50;99.90
52058;DHT22;38063;53.210;6.504;2023-06-04T03:51:20;9.50;99.90
52058;DHT22;38063;53.210;6.504;2023-06-04T03:53:46;9.50;99.90
52058;DHT22;38063;53.210;6.504;2023-06-04T03:56:11;9.50;99.90
52058;DHT22;38063;53.210;6.504;2023-06-04T03:58:37;9.50;99.90
52058;DHT22;38063;53.210;6.504;2023-06-04T04:01:03;9.50;99.90
52058;DHT22;38063;53.210;6.504;2023-06-04T04:03:30;9.60;99.90
52058;DHT22;38063;53.210;6.504;2023-06-04T04:05:59;9.60;99.90
52058;DHT22;38063;53.210;6.504;2023-06-04T04:08:25;9.60;99.90
52058;DHT22;38063;53.210;6.504;2023-06-04T04:10:51;9.60;99.90
52058;DHT22;38063;53.210;6.504;2023-06-04T04:13:17;9.60;99.90
52058;DHT22;38063;53.210;6.504;2023-06-04T04:15:43;9.60;99.90
52058;DHT22;38063;53.210;6.504;2023-06-04T04:18:08;9.60;99.90
52058;DHT22;38063;53.210;6.504;2023-06-04T04:20:36;9.70;99.90
52058;DHT22;38063;53.210;6.504;2023-06-04T04:23:01;9.70;99.90
52058;DHT22;38063;53.210;6.504;2023-06-04T04:25:27;9.70;99.90
52058;DHT22;38063;53.210;6.504;2023-06-04T04:27:53;10.10;99.90
52058;DHT22;38063;53.210;6.504;2023-06-04T04:30:21;9.70;99.90
52058;DHT22;38063;53.210;6.504;2023-06-04T04:32:48;9.70;99.90
52058;DHT22;38063;53.210;6.504;2023-06-04T04:35:17;9.80;99.90
52058;DHT22;38063;53.210;6.504;2023-06-04T04:37:44;9.80;99.90
52058;DHT22;38063;53.210;6.504;2023-06-04T04:40:10;9.80;99.90
52058;DHT22;38063;53.210;6.504;2023-06-04T04:42:37;9.80;99.90
52058;DHT22;38063;53.210;6.504;2023-06-04T04:45:03;9.80;99.90
52058;DHT22;38063;53.210;6.504;2023-06-04T04:47:29;9.90;99.90
52058;DHT22;38063;53.210;6.504;2023-06-04T04:49:55;9.90;99.90
52058;DHT22;38063;53.210;6.504;2023-06-04T04:52:21;10.10;99.90
52058;DHT22;38063;53.210;6.504;2023-06-04T04:54:46;10.00;99.90
52058;DHT22;38063;53.210;6.504;2023-06-04T04:57:12;10.10;99.90
52058;DHT22;38063;53.210;6.504;2023-06-04T04:59:37;10.10;99.90
52058;DHT22;38063;53.210;6.504;2023-06-04T05:02:03;10.20;99.90
52058;DHT22;38063;53.210;6.504;2023-06-04T05:04:29;10.20;99.90
52058;DHT22;38063;53.210;6.504;2023-06-04T05:06:55;10.30;99.90
52058;DHT22;38063;53.210;6.504;2023-06-04T05:09:20;10.40;99.90
52058;DHT22;38063;53.210;6.504;2023-06-04T05:11:46;10.50;99.90
52058;DHT22;38063;53.210;6.504;2023-06-04T05:14:11;10.60;99.90
52058;DHT22;38063;53.210;6.504;2023-06-04T05:16:37;10.50;99.90
52058;DHT22;38063;53.210;6.504;2023-06-04T05:19:04;10.60;99.90
52058;DHT22;38063;53.210;6.504;2023-06-04T05:21:29;10.70;99.90
52058;DHT22;38063;53.210;6.504;2023-06-04T05:23:55;10.70;99.90
52058;DHT22;38063;53.210;6.504;2023-06-04T05:26:21;10.80;99.90
52058;DHT22;38063;53.210;6.504;2023-06-04T05:28:51;10.90;99.90
52058;DHT22;38063;53.210;6.504;2023-06-04T05:31:16;11.00;99.90
52058;DHT22;38063;53.210;6.504;2023-06-04T05:33:43;11.10;99.90
52058;DHT22;38063;53.210;6.504;2023-06-04T05:36:09;11.20;99.90
52058;DHT22;38063;53.210;6.504;2023-06-04T05:38:35;11.40;99.90
52058;DHT22;38063;53.210;6.504;2023-06-04T05:41:01;11.50;99.90
52058;DHT22;38063;53.210;6.504;2023-06-04T05:43:27;11.80;99.90
52058;DHT22;38063;53.210;6.504;2023-06-04T05:45:53;12.10;99.90
52058;DHT22;38063;53.210;6.504;2023-06-04T05:48:19;12.30;99.90
52058;DHT22;38063;53.210;6.504;2023-06-04T05:50:44;12.50;99.90
52058;DHT22;38063;53.210;6.504;2023-06-04T05:53:10;12.60;99.90
52058;DHT22;38063;53.210;6.504;2023-06-04T05:55:36;12.90;99.90
52058;DHT22;38063;53.210;6.504;2023-06-04T05:58:01;13.00;99.90
52058;DHT22;38063;53.210;6.504;2023-06-04T06:00:27;13.20;99.90
52058;DHT22;38063;53.210;6.504;2023-06-04T06:02:53;13.30;99.90
52058;DHT22;38063;53.210;6.504;2023-06-04T06:05:19;13.50;99.90
52058;DHT22;38063;53.210;6.504;2023-06-04T06:07:45;13.60;99.90
52058;DHT22;38063;53.210;6.504;2023-06-04T06:10:12;13.80;99.90
52058;DHT22;38063;53.210;6.504;2023-06-04T06:12:37;14.00;99.90
52058;DHT22;38063;53.210;6.504;2023-06-04T06:15:03;14.30;99.90
52058;DHT22;38063;53.210;6.504;2023-06-04T06:17:30;14.50;99.90
52058;DHT22;38063;53.210;6.504;2023-06-04T06:19:56;14.50;99.90
52058;DHT22;38063;53.210;6.504;2023-06-04T06:22:22;14.60;99.90
52058;DHT22;38063;53.210;6.504;2023-06-04T06:24:48;14.70;99.90
52058;DHT22;38063;53.210;6.504;2023-06-04T06:27:16;14.70;99.90
52058;DHT22;38063;53.210;6.504;2023-06-04T06:29:43;14.70;99.90
52058;DHT22;38063;53.210;6.504;2023-06-04T06:32:10;14.80;99.90
52058;DHT22;38063;53.210;6.504;2023-06-04T06:34:35;14.80;99.90
52058;DHT22;38063;53.210;6.504;2023-06-04T06:37:02;14.90;99.90
52058;DHT22;38063;53.210;6.504;2023-06-04T06:39:28;15.00;99.90
52058;DHT22;38063;53.210;6.504;2023-06-04T06:41:54;15.10;99.90
52058;DHT22;38063;53.210;6.504;2023-06-04T06:44:19;15.10;99.90
52058;DHT22;38063;53.210;6.504;2023-06-04T06:46:45;15.20;99.90
52058;DHT22;38063;53.210;6.504;2023-06-04T06:49:12;15.30;99.90
52058;DHT22;38063;53.210;6.504;2023-06-04T06:51:38;15.30;99.90
52058;DHT22;38063;53.210;6.504;2023-06-04T06:54:03;15.40;99.90
52058;DHT22;38063;53.210;6.504;2023-06-04T06:56:29;15.70;99.90
52058;DHT22;38063;53.210;6.504;2023-06-04T06:58:56;15.70;99.90
52058;DHT22;38063;53.210;6.504;2023-06-04T07:01:21;15.90;99.90
52058;DHT22;38063;53.210;6.504;2023-06-04T07:03:47;16.10;99.90
52058;DHT22;38063;53.210;6.504;2023-06-04T07:06:13;16.30;99.90
52058;DHT22;38063;53.210;6.504;2023-06-04T07:08:39;16.50;99.90
52058;DHT22;38063;53.210;6.504;2023-06-04T07:11:05;16.60;99.90
52058;DHT22;38063;53.210;6.504;2023-06-04T07:13:30;16.80;99.90
52058;DHT22;38063;53.210;6.504;2023-06-04T07:15:58;17.00;99.90
52058;DHT22;38063;53.210;6.504;2023-06-04T07:18:24;17.10;99.90
52058;DHT22;38063;53.210;6.504;2023-06-04T07:20:50;17.20;99.90
52058;DHT22;38063;53.210;6.504;2023-06-04T07:23:18;17.20;99.90
52058;DHT22;38063;53.210;6.504;2023-06-04T07:25:43;17.40;99.90
52058;DHT22;38063;53.210;6.504;2023-06-04T07:28:09;17.60;99.90
52058;DHT22;38063;53.210;6.504;2023-06-04T07:30:35;17.60;99.90
52058;DHT22;38063;53.210;6.504;2023-06-04T07:33:02;17.70;99.90
52058;DHT22;38063;53.210;6.504;2023-06-04T07:35:28;17.70;99.90
52058;DHT22;38063;53.210;6.504;2023-06-04T07:37:53;17.90;99.90
52058;DHT22;38063;53.210;6.504;2023-06-04T07:40:19;17.80;99.90
52058;DHT22;38063;53.210;6.504;2023-06-04T07:42:45;17.80;99.90
52058;DHT22;38063;53.210;6.504;2023-06-04T07:45:12;17.80;99.90
52058;DHT22;38063;53.210;6.504;2023-06-04T07:47:38;18.00;99.90
52058;DHT22;38063;53.210;6.504;2023-06-04T07:50:04;18.10;99.90
52058;DHT22;38063;53.210;6.504;2023-06-04T07:52:31;18.10;99.90
52058;DHT22;38063;53.210;6.504;2023-06-04T07:54:56;18.10;99.90
52058;DHT22;38063;53.210;6.504;2023-06-04T07:57:22;18.30;99.90
52058;DHT22;38063;53.210;6.504;2023-06-04T07:59:48;18.40;99.90
52058;DHT22;38063;53.210;6.504;2023-06-04T08:02:14;18.60;99.90
52058;DHT22;38063;53.210;6.504;2023-06-04T08:04:40;18.90;99.90
52058;DHT22;38063;53.210;6.504;2023-06-04T08:07:06;18.90;99.90
52058;DHT22;38063;53.210;6.504;2023-06-04T08:09:32;18.90;99.90
52058;DHT22;38063;53.210;6.504;2023-06-04T08:11:57;19.00;99.90
52058;DHT22;38063;53.210;6.504;2023-06-04T08:14:23;19.30;99.90
52058;DHT22;38063;53.210;6.504;2023-06-04T08:16:52;19.50;99.90
52058;DHT22;38063;53.210;6.504;2023-06-04T08:19:18;19.70;99.90
52058;DHT22;38063;53.210;6.504;2023-06-04T08:21:44;19.70;99.90
52058;DHT22;38063;53.210;6.504;2023-06-04T08:24:10;19.70;99.90
52058;DHT22;38063;53.210;6.504;2023-06-04T08:26:36;19.80;99.90
52058;DHT22;38063;53.210;6.504;2023-06-04T08:29:03;19.90;99.90
52058;DHT22;38063;53.210;6.504;2023-06-04T08:31:32;19.90;99.90
52058;DHT22;38063;53.210;6.504;2023-06-04T08:33:58;20.10;99.90
52058;DHT22;38063;53.210;6.504;2023-06-04T08:36:24;20.40;99.90
52058;DHT22;38063;53.210;6.504;2023-06-04T08:38:49;20.40;99.90
52058;DHT22;38063;53.210;6.504;2023-06-04T08:41:29;20.20;99.90
52058;DHT22;38063;53.210;6.504;2023-06-04T08:43:56;20.30;99.90
52058;DHT22;38063;53.210;6.504;2023-06-04T08:46:23;20.00;99.90
52058;DHT22;38063;53.210;6.504;2023-06-04T08:48:50;20.10;99.90
52058;DHT22;38063;53.210;6.504;2023-06-04T08:51:15;20.30;99.90
52058;DHT22;38063;53.210;6.504;2023-06-04T08:53:42;20.20;99.90
52058;DHT22;38063;53.210;6.504;2023-06-04T08:56:08;20.40;99.90
52058;DHT22;38063;53.210;6.504;2023-06-04T08:58:36;20.70;99.90
52058;DHT22;38063;53.210;6.504;2023-06-04T09:01:05;20.80;98.80
52058;DHT22;38063;53.210;6.504;2023-06-04T09:03:33;20.80;98.60
52058;DHT22;38063;53.210;6.504;2023-06-04T09:05:59;20.70;97.70
52058;DHT22;38063;53.210;6.504;2023-06-04T09:08:26;20.80;97.60
52058;DHT22;38063;53.210;6.504;2023-06-04T09:10:54;20.70;97.10
52058;DHT22;38063;53.210;6.504;2023-06-04T09:13:22;20.70;96.60
52058;DHT22;38063;53.210;6.504;2023-06-04T09:16:01;20.60;95.80
52058;DHT22;38063;53.210;6.504;2023-06-04T09:18:28;20.40;94.90
52058;DHT22;38063;53.210;6.504;2023-06-04T09:21:03;20.30;95.00
52058;DHT22;38063;53.210;6.504;2023-06-04T09:23:29;20.30;94.70
52058;DHT22;38063;53.210;6.504;2023-06-04T09:25:56;20.60;95.40
52058;DHT22;38063;53.210;6.504;2023-06-04T09:28:21;20.70;95.40
52058;DHT22;38063;53.210;6.504;2023-06-04T09:30:53;20.90;95.00
52058;DHT22;38063;53.210;6.504;2023-06-04T09:33:19;20.90;94.80
52058;DHT22;38063;53.210;6.504;2023-06-04T09:35:59;21.10;94.50
52058;DHT22;38063;53.210;6.504;2023-06-04T09:38:35;21.10;93.10
52058;DHT22;38063;53.210;6.504;2023-06-04T09:41:01;21.10;93.20
52058;DHT22;38063;53.210;6.504;2023-06-04T09:43:30;21.20;93.60
52058;DHT22;38063;53.210;6.504;2023-06-04T09:46:14;21.40;93.80
52058;DHT22;38063;53.210;6.504;2023-06-04T09:48:41;21.70;93.40
52058;DHT22;38063;53.210;6.504;2023-06-04T09:51:09;21.70;93.10
52058;DHT22;38063;53.210;6.504;2023-06-04T09:53:36;21.70;93.00
52058;DHT22;38063;53.210;6.504;2023-06-04T09:56:03;21.70;92.70
52058;DHT22;38063;53.210;6.504;2023-06-04T09:58:29;21.80;93.20
52058;DHT22;38063;53.210;6.504;2023-06-04T10:00:57;21.90;92.90
52058;DHT22;38063;53.210;6.504;2023-06-04T10:03:32;21.70;92.20
52058;DHT22;38063;53.210;6.504;2023-06-04T10:06:00;21.50;92.30
52058;DHT22;38063;53.210;6.504;2023-06-04T10:08:27;21.40;92.10
52058;DHT22;38063;53.210;6.504;2023-06-04T10:11:03;21.20;92.00
52058;DHT22;38063;53.210;6.504;2023-06-04T10:14:22;21.20;91.70
52058;DHT22;38063;53.210;6.504;2023-06-04T10:16:51;21.30;92.20
52058;DHT22;38063;53.210;6.504;2023-06-04T10:19:18;21.50;92.80
52058;DHT22;38063;53.210;6.504;2023-06-04T10:21:43;21.50;92.20
52058;DHT22;38063;53.210;6.504;2023-06-04T10:24:09;21.60;92.40
52058;DHT22;38063;53.210;6.504;2023-06-04T10:26:37;21.80;92.50
52058;DHT22;38063;53.210;6.504;2023-06-04T10:29:03;21.90;91.60
52058;DHT22;38063;53.210;6.504;2023-06-04T10:31:32;21.70;91.60
52058;DHT22;38063;53.210;6.504;2023-06-04T10:33:58;21.60;91.60
52058;DHT22;38063;53.210;6.504;2023-06-04T10:36:24;21.60;91.60
52058;DHT22;38063;53.210;6.504;2023-06-04T10:38:54;21.80;91.70
52058;DHT22;38063;53.210;6.504;2023-06-04T10:41:21;21.80;91.10
52058;DHT22;38063;53.210;6.504;2023-06-04T10:43:52;21.90;90.90
52058;DHT22;38063;53.210;6.504;2023-06-04T10:46:25;22.00;90.50
52058;DHT22;38063;53.210;6.504;2023-06-04T10:48:52;22.00;90.50
52058;DHT22;38063;53.210;6.504;2023-06-04T10:51:32;22.00;90.50
52058;DHT22;38063;53.210;6.504;2023-06-04T10:53:59;21.90;90.40
52058;DHT22;38063;53.210;6.504;2023-06-04T10:56:32;21.70;90.40
52058;DHT22;38063;53.210;6.504;2023-06-04T10:59:00;21.70;90.80
52058;DHT22;38063;53.210;6.504;2023-06-04T11:01:26;21.60;91.10
52058;DHT22;38063;53.210;6.504;2023-06-04T11:03:52;21.60;91.10
52058;DHT22;38063;53.210;6.504;2023-06-04T11:06:18;21.60;91.20
52058;DHT22;38063;53.210;6.504;2023-06-04T11:08:44;21.70;91.20
52058;DHT22;38063;53.210;6.504;2023-06-04T11:11:14;21.80;91.10
52058;DHT22;38063;53.210;6.504;2023-06-04T11:13:41;22.00;91.30
52058;DHT22;38063;53.210;6.504;2023-06-04T11:16:20;22.20;91.20
52058;DHT22;38063;53.210;6.504;2023-06-04T11:18:55;22.20;90.10
52058;DHT22;38063;53.210;6.504;2023-06-04T11:21:22;22.20;90.70
52058;DHT22;38063;53.210;6.504;2023-06-04T11:23:48;22.20;90.50
52058;DHT22;38063;53.210;6.504;2023-06-04T11:26:14;22.20;90.30
52058;DHT22;38063;53.210;6.504;2023-06-04T11:28:39;22.10;90.50
52058;DHT22;38063;53.210;6.504;2023-06-04T11:31:10;22.00;90.90
52058;DHT22;38063;53.210;6.504;2023-06-04T11:33:43;21.90;90.80
52058;DHT22;38063;53.210;6.504;2023-06-04T11:36:21;21.70;90.30
52058;DHT22;38063;53.210;6.504;2023-06-04T11:38:57;21.70;90.70
52058;DHT22;38063;53.210;6.504;2023-06-04T11:41:27;21.80;90.50
52058;DHT22;38063;53.210;6.504;2023-06-04T11:43:52;21.80;91.00
52058;DHT22;38063;53.210;6.504;2023-06-04T11:46:19;21.60;91.00
52058;DHT22;38063;53.210;6.504;2023-06-04T11:48:45;21.40;90.90
52058;DHT22;38063;53.210;6.504;2023-06-04T11:51:10;21.50;91.90
52058;DHT22;38063;53.210;6.504;2023-06-04T11:53:37;21.50;92.10
52058;DHT22;38063;53.210;6.504;2023-06-04T11:56:04;21.50;92.00
52058;DHT22;38063;53.210;6.504;2023-06-04T11:58:30;21.40;92.00
52058;DHT22;38063;53.210;6.504;2023-06-04T12:14:58;21.10;91.50
52058;DHT22;38063;53.210;6.504;2023-06-04T12:17:24;21.80;91.80
52058;DHT22;38063;53.210;6.504;2023-06-04T12:19:51;21.60;91.90
52058;DHT22;38063;53.210;6.504;2023-06-04T12:22:17;21.50;92.00
52058;DHT22;38063;53.210;6.504;2023-06-04T12:24:53;21.20;92.10
52058;DHT22;38063;53.210;6.504;2023-06-04T12:27:20;21.10;92.20
52058;DHT22;38063;53.210;6.504;2023-06-04T12:30:04;21.00;92.60
52058;DHT22;38063;53.210;6.504;2023-06-04T12:32:36;21.00;92.50
52058;DHT22;38063;53.210;6.504;2023-06-04T12:35:02;20.90;92.80
52058;DHT22;38063;53.210;6.504;2023-06-04T12:37:27;20.90;92.60
52058;DHT22;38063;53.210;6.504;2023-06-04T12:39:54;20.80;92.50
52058;DHT22;38063;53.210;6.504;2023-06-04T12:42:20;20.80;92.80
52058;DHT22;38063;53.210;6.504;2023-06-04T12:44:46;20.70;92.50
52058;DHT22;38063;53.210;6.504;2023-06-04T12:47:12;20.70;92.60
52058;DHT22;38063;53.210;6.504;2023-06-04T12:49:38;20.60;92.70
52058;DHT22;38063;53.210;6.504;2023-06-04T12:52:04;20.60;93.00
52058;DHT22;38063;53.210;6.504;2023-06-04T12:54:31;20.60;92.80
52058;DHT22;38063;53.210;6.504;2023-06-04T12:56:58;20.50;92.90
52058;DHT22;38063;53.210;6.504;2023-06-04T12:59:27;20.50;93.00
52058;DHT22;38063;53.210;6.504;2023-06-04T13:01:54;20.40;92.70
52058;DHT22;38063;53.210;6.504;2023-06-04T13:04:19;20.50;93.10
52058;DHT22;38063;53.210;6.504;2023-06-04T13:06:46;20.40;93.00
52058;DHT22;38063;53.210;6.504;2023-06-04T13:09:12;20.40;92.80
52058;DHT22;38063;53.210;6.504;2023-06-04T13:11:47;20.40;92.80
52058;DHT22;38063;53.210;6.504;2023-06-04T13:14:12;20.30;92.60
52058;DHT22;38063;53.210;6.504;2023-06-04T13:16:38;20.20;93.10
52058;DHT22;38063;53.210;6.504;2023-06-04T13:19:05;20.20;93.20
52058;DHT22;38063;53.210;6.504;2023-06-04T13:21:31;20.10;93.10
52058;DHT22;38063;53.210;6.504;2023-06-04T13:23:56;20.10;93.50
52058;DHT22;38063;53.210;6.504;2023-06-04T13:26:22;20.10;93.30
52058;DHT22;38063;53.210;6.504;2023-06-04T13:28:48;20.00;93.20
52058;DHT22;38063;53.210;6.504;2023-06-04T13:31:14;20.10;93.30
52058;DHT22;38063;53.210;6.504;2023-06-04T13:33:39;20.10;93.50
52058;DHT22;38063;53.210;6.504;2023-06-04T13:36:05;20.20;93.20
52058;DHT22;38063;53.210;6.504;2023-06-04T13:38:32;20.10;93.00
52058;DHT22;38063;53.210;6.504;2023-06-04T13:40:58;19.90;93.20
52058;DHT22;38063;53.210;6.504;2023-06-04T13:43:23;19.80;93.50
52058;DHT22;38063;53.210;6.504;2023-06-04T13:45:49;19.70;93.60
52058;DHT22;38063;53.210;6.504;2023-06-04T13:48:15;19.70;93.80
52058;DHT22;38063;53.210;6.504;2023-06-04T13:50:41;19.80;93.70
52058;DHT22;38063;53.210;6.504;2023-06-04T13:53:10;19.90;93.90
52058;DHT22;38063;53.210;6.504;2023-06-04T13:55:36;19.90;93.70
52058;DHT22;38063;53.210;6.504;2023-06-04T13:58:02;20.00;93.80
52058;DHT22;38063;53.210;6.504;2023-06-04T14:00:27;19.90;93.80
52058;DHT22;38063;53.210;6.504;2023-06-04T14:02:55;19.90;93.70
52058;DHT22;38063;53.210;6.504;2023-06-04T14:05:21;19.90;94.00
52058;DHT22;38063;53.210;6.504;2023-06-04T14:07:47;19.80;93.90
52058;DHT22;38063;53.210;6.504;2023-06-04T14:10:13;19.80;94.00
52058;DHT22;38063;53.210;6.504;2023-06-04T14:12:39;19.70;94.40
52058;DHT22;38063;53.210;6.504;2023-06-04T14:15:10;19.70;94.50
52058;DHT22;38063;53.210;6.504;2023-06-04T14:17:39;19.60;94.20
52058;DHT22;38063;53.210;6.504;2023-06-04T14:20:05;19.40;94.10
52058;DHT22;38063;53.210;6.504;2023-06-04T14:22:39;19.40;94.50
52058;DHT22;38063;53.210;6.504;2023-06-04T14:25:05;19.40;95.50
52058;DHT22;38063;53.210;6.504;2023-06-04T14:27:32;19.30;94.80
52058;DHT22;38063;53.210;6.504;2023-06-04T14:29:58;19.10;95.00
52058;DHT22;38063;53.210;6.504;2023-06-04T14:32:24;19.20;95.20
52058;DHT22;38063;53.210;6.504;2023-06-04T14:34:50;19.30;95.30
52058;DHT22;38063;53.210;6.504;2023-06-04T14:37:16;19.30;95.20
52058;DHT22;38063;53.210;6.504;2023-06-04T14:39:42;19.30;95.00
52058;DHT22;38063;53.210;6.504;2023-06-04T14:42:07;19.20;95.20
52058;DHT22;38063;53.210;6.504;2023-06-04T14:44:33;19.10;95.40
52058;DHT22;38063;53.210;6.504;2023-06-04T14:46:59;19.00;95.10
52058;DHT22;38063;53.210;6.504;2023-06-04T14:49:25;18.80;95.40
52058;DHT22;38063;53.210;6.504;2023-06-04T14:51:50;18.70;95.50
52058;DHT22;38063;53.210;6.504;2023-06-04T14:54:16;18.70;95.70
52058;DHT22;38063;53.210;6.504;2023-06-04T14:56:42;18.70;95.60
52058;DHT22;38063;53.210;6.504;2023-06-04T14:59:09;18.80;95.50
52058;DHT22;38063;53.210;6.504;2023-06-04T15:01:38;18.80;95.50
52058;DHT22;38063;53.210;6.504;2023-06-04T15:04:04;18.80;95.30
52058;DHT22;38063;53.210;6.504;2023-06-04T15:06:30;18.80;95.30
52058;DHT22;38063;53.210;6.504;2023-06-04T15:08:56;18.70;94.90
52058;DHT22;38063;53.210;6.504;2023-06-04T15:11:21;18.60;95.00
52058;DHT22;38063;53.210;6.504;2023-06-04T15:13:47;18.60;95.00
52058;DHT22;38063;53.210;6.504;2023-06-04T15:16:13;18.60;95.00
52058;DHT22;38063;53.210;6.504;2023-06-04T15:18:38;18.50;95.30
52058;DHT22;38063;53.210;6.504;2023-06-04T15:21:04;18.40;95.30
52058;DHT22;38063;53.210;6.504;2023-06-04T15:23:30;18.40;95.20
52058;DHT22;38063;53.210;6.504;2023-06-04T15:25:55;18.40;95.40
52058;DHT22;38063;53.210;6.504;2023-06-04T15:28:21;18.30;95.40
52058;DHT22;38063;53.210;6.504;2023-06-04T15:30:47;18.30;95.60
52058;DHT22;38063;53.210;6.504;2023-06-04T15:33:12;18.20;95.60
52058;DHT22;38063;53.210;6.504;2023-06-04T15:35:38;18.10;95.70
52058;DHT22;38063;53.210;6.504;2023-06-04T15:38:04;18.10;95.90
52058;DHT22;38063;53.210;6.504;2023-06-04T15:40:30;17.90;96.30
52058;DHT22;38063;53.210;6.504;2023-06-04T15:42:55;17.80;96.60
52058;DHT22;38063;53.210;6.504;2023-06-04T15:45:21;17.70;97.10
52058;DHT22;38063;53.210;6.504;2023-06-04T15:47:50;17.50;97.60